world map with KCFE marked

KCFE - Airport

This information may not be accurate or current and is not valid for navigation or flight planning. No warranty of fitness for any purpose is made or implied.

flag of Minnesotaflag of United States

Donate via PayPal

Additional information is available on the NEW Great Circle Mapper

Location
City:  Buffalo, Minnesota, United States
Name:Buffalo Municipal Airport
ICAO:KCFE
FAA:CFE

Details
Type:Airport (Airfield)
Use:Public/Civil
Latitude:45°09'32"N (45.158833)
Longitude:93°50'36"W (-93.843305)
Datum:WGS 1984
Elevation:967 ft (295 m)
Runways:1
Longest:3200 × 75 ft (975 × 23 m)

Time
Timezone:UTC+28:08 (DST+29:08)
Local Time:

Weather
METAR:KCFE  230056Z AUTO 05003KT 10SM CLR 24/20 A3000 RMK AO2 T02350197

Related Locations
Nearby:
Farthest:MGV: 10723 mi / 17257 km
Margaret River, WA, AU

Find:

   beyond  
but within

Other Information
Maps:
Links:
Sources:

  

Sectional Chart

Flight Planning
at skyvector.com

 


Great Circle Mapper   Great Circle Mapper
Great Circle Mapper FAQ   Great Circle Mapper FAQ
  Karl's Home Page
KLSē   KLSē Home
   GC on Facebook
Airlines of the World   Airlines of the World
Donate via PayPal


Copyright © 2004-2014, Karl L. Swartz. All rights reserved.
All trademarks mentioned herein belong to their respective owners.

Please see credits for attribution and copyright information.

Karl Swartz <karl@kls2.com>
  Powered by FreeBSD
Valid HTML 4.01!
Labeled with ICRA
hCard Microformat
Geo Microformat